Webcam Flughafen St.Gallen-Altenrhein

Live-Bilder und Zeitraffer LSZR / ACH.

 

Live aus Altenrhein
LIVE
LSZR 251720Z AUTO 28004KT 9999 FEW080 17/08 Q1031
Zeitraffer heute
2020-05-25 00:14:34
LSZR 242150Z AUTO 28004KT 240V330 9999 BKN065 13/07 Q1032